Time;durP1;ratioP1;P1;durP2;ratioP2;P2;SDS_P1;SDS_P2;PMS_P1;PMS_P2;Temp;Humidity;BMP_temperature;BMP_pressure;BME280_temperature;BME280_humidity;BME280_pressure;Samples;Min_cycle;Max_cycle;Signal;HPM_P1;HPM_P2
2023/03/03 00:01:06;;;;;;;3.20;3.00;;;8.10;91.50;;;;;;5086504;28;20021;-71
2023/03/03 00:03:32;;;;;;;3.03;2.83;;;8.10;91.40;;;;;;5087610;28;20042;-72
2023/03/03 00:05:58;;;;;;;3.00;2.80;;;8.10;91.40;;;;;;5086139;28;20499;-72
2023/03/03 00:08:25;;;;;;;2.70;2.50;;;8.10;91.40;;;;;;5086213;28;20078;-72
2023/03/03 00:10:51;;;;;;;2.80;2.60;;;8.10;91.40;;;;;;5087504;28;20020;-72
2023/03/03 00:13:26;;;;;;;2.80;2.60;;;8.10;91.40;;;;;;5086322;28;20536;-72
2023/03/03 00:15:52;;;;;;;2.53;2.33;;;8.10;91.40;;;;;;5087149;28;20056;-71
2023/03/03 00:18:25;;;;;;;2.58;2.38;;;8.10;91.40;;;;;;5087334;28;20103;-71
2023/03/03 00:20:56;;;;;;;2.80;2.60;;;8.00;91.40;;;;;;5087739;28;20020;-70
2023/03/03 00:23:36;;;;;;;2.88;2.67;;;8.00;91.40;;;;;;5087371;28;20027;-71
2023/03/03 00:26:22;;;;;;;2.72;2.53;;;8.00;91.40;;;;;;5087338;28;20093;-71
2023/03/03 00:28:50;;;;;;;2.65;2.45;;;8.10;91.40;;;;;;5085920;28;20025;-71
2023/03/03 00:31:30;;;;;;;2.80;2.60;;;8.10;91.40;;;;;;5087321;28;20024;-73
2023/03/03 00:34:17;;;;;;;2.17;1.98;;;8.10;91.40;;;;;;5086093;28;20024;-71
2023/03/03 00:36:43;;;;;;;2.00;1.90;;;8.10;91.40;;;;;;5086044;28;20060;-71
2023/03/03 00:39:12;;;;;;;;;;;8.20;91.30;;;;;;5088145;28;20036;-71
2023/03/03 00:41:38;;;;;;;1.60;1.50;;;8.10;91.30;;;;;;5085775;28;19904;-71
2023/03/03 00:44:26;;;;;;;1.80;1.70;;;8.10;91.30;;;;;;5085887;28;20040;-71
2023/03/03 00:46:53;;;;;;;1.67;1.58;;;8.10;91.30;;;;;;5087170;28;20020;-71
2023/03/03 00:49:25;;;;;;;1.50;1.40;;;8.20;91.40;;;;;;5087173;28;20024;-71
2023/03/03 00:51:52;;;;;;;1.40;1.30;;;8.20;91.40;;;;;;5089535;28;20464;-71
2023/03/03 00:54:18;;;;;;;1.30;1.20;;;8.10;91.30;;;;;;5090642;28;20059;-71
2023/03/03 00:56:44;;;;;;;1.50;1.40;;;8.10;91.40;;;;;;5090877;28;20119;-71
2023/03/03 00:59:10;;;;;;;1.30;1.20;;;8.10;91.40;;;;;;5090744;28;20441;-71
2023/03/03 01:01:35;;;;;;;1.00;1.00;;;8.10;91.40;;;;;;5090658;28;20024;-71
2023/03/03 01:04:01;;;;;;;1.10;1.10;;;8.10;91.40;;;;;;5090610;28;20035;-71
2023/03/03 01:06:27;;;;;;;1.00;1.00;;;8.20;91.40;;;;;;5090369;28;20036;-71
2023/03/03 01:08:53;;;;;;;0.90;0.90;;;8.20;91.40;;;;;;5089165;28;20555;-71
2023/03/03 01:11:24;;;;;;;0.80;0.80;;;8.20;91.30;;;;;;5090503;28;20499;-71
2023/03/03 01:13:52;;;;;;;0.90;0.90;;;8.30;91.30;;;;;;5090459;28;20065;-71
2023/03/03 01:16:17;;;;;;;0.80;0.80;;;8.20;91.30;;;;;;5088973;28;20134;-71
2023/03/03 01:18:44;;;;;;;1.00;1.00;;;8.20;91.30;;;;;;5088931;28;20032;-71
2023/03/03 01:21:10;;;;;;;0.85;0.85;;;8.10;91.30;;;;;;5090427;28;20038;-71
2023/03/03 01:23:36;;;;;;;0.90;0.90;;;8.10;91.50;;;;;;5090585;28;20024;-71
2023/03/03 01:26:02;;;;;;;0.90;0.90;;;8.00;91.30;;;;;;5090340;28;20095;-71
2023/03/03 01:28:28;;;;;;;0.70;0.70;;;8.00;91.40;;;;;;5088918;28;20104;-71
2023/03/03 01:30:53;;;;;;;0.60;0.60;;;8.00;91.40;;;;;;5090164;28;20063;-71
2023/03/03 01:33:20;;;;;;;0.50;0.50;;;8.00;91.40;;;;;;5072066;28;20476;-71
2023/03/03 01:35:46;;;;;;;0.50;0.50;;;8.00;91.30;;;;;;5089958;28;20169;-71
2023/03/03 01:38:14;;;;;;;0.40;0.40;;;8.00;91.40;;;;;;5090109;28;20419;-71
2023/03/03 01:40:40;;;;;;;0.40;0.40;;;8.00;91.30;;;;;;5090053;28;20091;-71
2023/03/03 01:43:06;;;;;;;;;;;8.00;91.30;;;;;;5090348;28;20027;-71
2023/03/03 01:45:47;;;;;;;0.20;0.20;;;8.00;91.20;;;;;;5089965;28;20287;-71
2023/03/03 01:48:21;;;;;;;0.20;0.20;;;8.00;91.20;;;;;;5088473;28;20028;-71
2023/03/03 01:51:04;;;;;;;0.20;0.20;;;7.90;91.20;;;;;;5089670;28;20032;-71
2023/03/03 01:53:43;;;;;;;0.20;0.20;;;7.90;91.20;;;;;;5088326;28;20049;-71
2023/03/03 01:56:09;;;;;;;0.20;0.20;;;7.90;91.20;;;;;;5089643;28;20065;-71
2023/03/03 01:58:40;;;;;;;;;;;7.90;91.20;;;;;;5089144;28;20429;-71
2023/03/03 02:01:14;;;;;;;0.10;0.10;;;7.90;91.20;;;;;;5089450;28;19939;-71
2023/03/03 02:03:42;;;;;;;0.10;0.10;;;7.90;91.20;;;;;;5088093;28;20023;-71
2023/03/03 02:06:14;;;;;;;0.10;0.10;;;7.90;91.30;;;;;;5089828;28;20020;-71
2023/03/03 02:09:23;;;;;;;0.10;0.10;;;7.90;91.30;;;;;;5090020;28;20035;-71
2023/03/03 02:11:51;;;;;;;0.10;0.10;;;7.80;91.30;;;;;;5040726;28;20028;-71
2023/03/03 02:14:17;;;;;;;0.10;0.10;;;7.90;91.30;;;;;;5089282;28;20172;-71
2023/03/03 02:16:43;;;;;;;0.10;0.10;;;8.00;91.30;;;;;;5089158;28;20097;-71
2023/03/03 02:19:38;;;;;;;0.08;0.08;;;8.00;91.30;;;;;;5089283;28;20039;-71
2023/03/03 02:22:04;;;;;;;0.00;0.00;;;8.10;91.30;;;;;;5066664;28;20105;-71
2023/03/03 02:24:48;;;;;;;0.08;0.08;;;8.10;91.30;;;;;;5089120;28;20024;-71
2023/03/03 02:27:14;;;;;;;0.75;0.28;;;8.10;91.20;;;;;;5089203;28;20435;-71
2023/03/03 02:29:40;;;;;;;0.00;0.00;;;8.10;91.20;;;;;;5087806;28;20479;-71
2023/03/03 02:32:06;;;;;;;0.00;0.00;;;8.10;91.10;;;;;;5070945;28;20028;-71
2023/03/03 02:34:47;;;;;;;0.00;0.00;;;8.10;91.10;;;;;;5087568;28;20115;-71
2023/03/03 02:37:12;;;;;;;0.00;0.00;;;8.10;91.20;;;;;;5089034;28;20062;-71
2023/03/03 02:39:38;;;;;;;0.00;0.00;;;8.10;91.20;;;;;;5087451;28;20055;-71
2023/03/03 02:42:18;;;;;;;0.00;0.00;;;8.20;91.20;;;;;;5087494;28;20121;-71
2023/03/03 02:44:44;;;;;;;0.00;0.00;;;8.10;91.10;;;;;;5088753;28;20541;-71
2023/03/03 02:47:10;;;;;;;0.00;0.00;;;8.10;91.10;;;;;;5088759;28;20106;-71
2023/03/03 02:49:36;;;;;;;0.00;0.00;;;8.10;91.10;;;;;;5087518;28;20026;-71
2023/03/03 02:52:04;;;;;;;0.00;0.00;;;8.10;91.10;;;;;;5087545;28;20042;-71
2023/03/03 02:54:31;;;;;;;0.00;0.00;;;8.00;91.20;;;;;;5087032;28;20032;-71
2023/03/03 02:56:58;;;;;;;0.00;0.00;;;7.90;91.20;;;;;;5088504;28;20020;-71
2023/03/03 02:59:23;;;;;;;0.05;0.05;;;7.90;91.30;;;;;;5087211;28;20016;-71
2023/03/03 03:01:49;;;;;;;0.00;0.00;;;7.90;91.30;;;;;;5070475;28;20073;-71
2023/03/03 03:04:18;;;;;;;0.00;0.00;;;7.80;91.20;;;;;;5088503;28;20055;-71
2023/03/03 03:06:45;;;;;;;0.00;0.00;;;7.80;91.30;;;;;;5087085;28;20036;-71
2023/03/03 03:09:12;;;;;;;0.00;0.00;;;7.80;91.30;;;;;;5088402;28;20028;-71
2023/03/03 03:11:38;;;;;;;0.00;0.00;;;7.70;91.30;;;;;;5088306;28;20024;-71
2023/03/03 03:14:06;;;;;;;0.10;0.10;;;7.80;91.30;;;;;;5086163;28;20399;-70
2023/03/03 03:16:33;;;;;;;0.00;0.00;;;7.70;91.30;;;;;;5087995;28;20503;-70
2023/03/03 03:18:59;;;;;;;;;;;7.70;91.30;;;;;;5088600;28;20089;-71
2023/03/03 03:21:25;;;;;;;0.10;0.10;;;7.70;91.40;;;;;;5088128;28;19925;-71
2023/03/03 03:23:51;;;;;;;;;;;7.70;91.40;;;;;;5088503;28;20396;-70
2023/03/03 03:26:16;;;;;;;0.10;0.10;;;7.70;91.30;;;;;;5088029;28;19904;-70
2023/03/03 03:28:42;;;;;;;0.10;0.10;;;7.70;91.30;;;;;;5088325;28;20130;-70
2023/03/03 03:31:09;;;;;;;0.10;0.10;;;7.60;91.30;;;;;;5070036;28;20058;-71
2023/03/03 03:33:35;;;;;;;0.20;0.20;;;7.60;91.30;;;;;;5086587;28;20031;-70
2023/03/03 03:36:00;;;;;;;;;;;7.60;91.30;;;;;;5088356;28;20028;-70
2023/03/03 03:38:28;;;;;;;0.20;0.20;;;7.60;91.30;;;;;;5088009;28;19915;-70
2023/03/03 03:40:54;;;;;;;0.30;0.30;;;7.60;91.30;;;;;;5087818;28;20032;-71
2023/03/03 03:43:20;;;;;;;0.28;0.28;;;7.60;91.30;;;;;;5087854;28;20107;-71
2023/03/03 03:45:46;;;;;;;0.20;0.20;;;7.60;91.40;;;;;;5086434;28;20033;-70
2023/03/03 03:48:11;;;;;;;0.30;0.30;;;7.60;91.40;;;;;;5087800;28;20025;-70
2023/03/03 03:50:38;;;;;;;0.30;0.30;;;7.60;91.40;;;;;;5088066;28;20059;-71
2023/03/03 03:53:05;;;;;;;0.38;0.38;;;7.60;91.60;;;;;;5086305;28;20032;-71
2023/03/03 03:55:31;;;;;;;;;;;7.60;91.40;;;;;;5088063;28;20032;-71
2023/03/03 03:57:57;;;;;;;0.30;0.30;;;7.60;91.40;;;;;;5087708;28;19904;-70
2023/03/03 04:00:23;;;;;;;0.40;0.40;;;7.70;91.40;;;;;;5087326;28;20417;-72
2023/03/03 04:02:49;;;;;;;0.40;0.40;;;7.70;91.30;;;;;;5087742;28;20024;-72
2023/03/03 04:05:15;;;;;;;0.45;0.45;;;7.70;91.30;;;;;;5069461;28;20099;-72
2023/03/03 04:07:41;;;;;;;0.50;0.50;;;7.70;91.30;;;;;;5087546;28;20032;-71
2023/03/03 04:10:07;;;;;;;0.50;0.50;;;7.80;91.20;;;;;;5086360;28;20056;-71
2023/03/03 04:12:37;;;;;;;;;;;7.80;91.20;;;;;;5088001;28;20043;-71
2023/03/03 04:15:12;;;;;;;0.57;0.57;;;7.80;91.20;;;;;;5085868;28;20275;-71
2023/03/03 04:17:39;;;;;;;0.70;0.70;;;7.80;91.10;;;;;;5087560;28;20387;-71
2023/03/03 04:20:06;;;;;;;0.77;0.77;;;7.90;91.20;;;;;;5087418;28;20036;-72
2023/03/03 04:22:32;;;;;;;0.70;0.70;;;7.80;91.10;;;;;;5087305;28;20020;-71
2023/03/03 04:25:04;;;;;;;0.80;0.80;;;7.80;91.20;;;;;;5088313;28;20019;-71
2023/03/03 04:27:34;;;;;;;0.70;0.70;;;7.80;91.20;;;;;;5090149;28;20028;-71
2023/03/03 04:30:00;;;;;;;0.80;0.80;;;7.80;91.20;;;;;;5091472;28;20051;-71
2023/03/03 04:32:26;;;;;;;1.00;1.00;;;7.80;91.20;;;;;;5091347;28;20481;-71
2023/03/03 04:34:52;;;;;;;1.10;1.10;;;7.80;91.20;;;;;;5091565;28;20074;-72
2023/03/03 04:37:17;;;;;;;;;;;7.80;91.20;;;;;;5091754;28;20048;-71
2023/03/03 04:39:43;;;;;;;0.90;0.90;;;7.80;91.20;;;;;;5091227;28;20394;-71
2023/03/03 04:42:09;;;;;;;0.90;0.90;;;7.90;91.20;;;;;;5091227;28;20122;-72
2023/03/03 04:44:34;;;;;;;1.00;1.00;;;7.80;91.10;;;;;;5091194;28;20037;-71
2023/03/03 04:47:00;;;;;;;1.15;1.15;;;7.80;91.20;;;;;;5089868;28;20502;-72
2023/03/03 04:49:26;;;;;;;1.27;1.17;;;7.80;91.30;;;;;;5090969;28;20043;-71
2023/03/03 04:51:52;;;;;;;1.40;1.30;;;7.80;91.30;;;;;;5090918;28;20024;-71
2023/03/03 04:54:17;;;;;;;1.60;1.50;;;7.80;91.20;;;;;;5090715;28;20435;-71
2023/03/03 04:56:43;;;;;;;1.70;1.60;;;7.90;91.50;;;;;;5090916;28;20115;-71
2023/03/03 04:59:09;;;;;;;1.90;1.80;;;7.90;91.20;;;;;;5089572;28;20040;-71
2023/03/03 05:01:35;;;;;;;1.80;1.70;;;7.90;91.20;;;;;;5089552;28;20465;-72
2023/03/03 05:04:01;;;;;;;1.90;1.80;;;7.90;91.20;;;;;;5090824;28;20038;-71
2023/03/03 05:06:27;;;;;;;1.80;1.70;;;7.90;91.10;;;;;;5090500;28;20024;-71
2023/03/03 05:08:53;;;;;;;1.70;1.60;;;7.90;91.10;;;;;;5090575;28;20453;-71
2023/03/03 05:11:19;;;;;;;1.85;1.75;;;7.90;91.10;;;;;;5090727;28;20028;-72
2023/03/03 05:13:45;;;;;;;2.22;2.03;;;7.90;91.20;;;;;;5089379;28;20035;-71
2023/03/03 05:16:10;;;;;;;2.28;2.08;;;7.80;91.20;;;;;;5090151;28;20051;-71
2023/03/03 05:18:36;;;;;;;2.40;2.20;;;7.80;91.20;;;;;;5089252;28;20435;-71
2023/03/03 05:21:02;;;;;;;2.20;2.00;;;7.80;91.20;;;;;;5089026;28;20028;-71
2023/03/03 05:23:28;;;;;;;2.20;2.00;;;7.80;91.20;;;;;;5089050;28;20036;-71
2023/03/03 05:25:54;;;;;;;2.20;2.00;;;7.80;91.20;;;;;;5090356;28;20037;-71
2023/03/03 05:28:19;;;;;;;2.60;2.40;;;7.80;91.30;;;;;;5089206;28;20044;-71
2023/03/03 05:30:45;;;;;;;2.60;2.40;;;7.80;91.30;;;;;;5089062;28;20028;-71
2023/03/03 05:33:15;;;;;;;2.90;2.70;;;7.80;91.30;;;;;;5088984;28;20093;-71
2023/03/03 05:35:41;;;;;;;2.72;2.53;;;7.80;91.20;;;;;;5089984;28;20097;-71
2023/03/03 05:38:07;;;;;;;2.80;2.60;;;7.80;91.20;;;;;;5089118;28;20028;-71
2023/03/03 05:40:33;;;;;;;3.00;2.80;;;7.80;91.20;;;;;;5089975;28;20076;-71
2023/03/03 05:42:59;;;;;;;3.60;3.30;;;7.80;91.20;;;;;;5090026;28;20095;-71
2023/03/03 05:45:24;;;;;;;3.63;3.33;;;7.80;91.20;;;;;;5089957;28;20433;-71
2023/03/03 05:47:51;;;;;;;3.35;3.13;;;7.80;91.20;;;;;;5089836;28;20047;-72
2023/03/03 05:50:19;;;;;;;3.85;3.55;;;7.80;91.20;;;;;;5089709;28;20181;-71
2023/03/03 05:52:48;;;;;;;3.88;3.58;;;7.80;91.20;;;;;;5088459;28;20434;-71
2023/03/03 05:55:14;;;;;;;4.00;3.70;;;7.80;91.20;;;;;;5089552;28;20421;-71
2023/03/03 05:57:39;;;;;;;4.80;4.50;;;7.80;91.20;;;;;;5089679;28;20024;-71
2023/03/03 06:00:07;;;;;;;4.53;4.22;;;7.80;91.20;;;;;;5089796;28;20032;-72
2023/03/03 06:02:33;;;;;;;4.50;4.20;;;7.80;91.20;;;;;;5089620;28;20028;-71
2023/03/03 06:04:59;;;;;;;;;;;7.80;91.20;;;;;;5088725;28;20028;-71
2023/03/03 06:07:25;;;;;;;3.92;3.63;;;7.80;91.20;;;;;;5089457;28;19908;-71
2023/03/03 06:09:50;;;;;;;4.50;4.20;;;7.80;91.10;;;;;;5089480;28;20055;-71
2023/03/03 06:12:16;;;;;;;5.05;4.75;;;7.80;91.10;;;;;;5089637;28;20042;-72
2023/03/03 06:14:42;;;;;;;5.22;4.93;;;7.80;91.20;;;;;;5089317;28;20036;-71
2023/03/03 06:17:07;;;;;;;6.05;5.75;;;7.70;91.20;;;;;;5089364;28;20055;-71
2023/03/03 06:19:33;;;;;;;5.85;5.55;;;7.70;91.20;;;;;;5087943;28;20043;-71
2023/03/03 06:21:59;;;;;;;6.70;6.30;;;7.70;91.20;;;;;;5089210;28;20476;-71
2023/03/03 06:24:29;;;;;;;6.60;6.20;;;7.80;91.20;;;;;;5089061;28;20298;-71
2023/03/03 06:26:55;;;;;;;7.63;7.22;;;7.80;91.20;;;;;;5089024;28;20036;-71
2023/03/03 06:29:21;;;;;;;8.25;7.85;;;7.80;91.20;;;;;;5088723;28;20068;-72
2023/03/03 06:31:47;;;;;;;8.18;7.78;;;7.80;91.20;;;;;;5087390;28;20472;-71
2023/03/03 06:34:12;;;;;;;9.15;8.75;;;7.80;91.10;;;;;;5087652;28;20033;-72
2023/03/03 06:36:38;;;;;;;9.93;9.43;;;7.80;91.10;;;;;;5088741;28;20020;-71
2023/03/03 06:39:04;;;;;;;9.70;9.20;;;7.80;91.10;;;;;;5088792;28;20032;-71
2023/03/03 06:41:30;;;;;;;9.35;8.90;;;7.80;91.10;;;;;;5087549;28;20063;-71
2023/03/03 06:43:57;;;;;;;9.82;9.32;;;7.80;91.10;;;;;;5088714;28;20040;-71
2023/03/03 06:46:22;;;;;;;10.05;9.55;;;7.70;91.10;;;;;;5088525;28;20027;-66
2023/03/03 06:48:48;;;;;;;10.48;9.98;;;7.70;91.20;;;;;;5089079;28;20029;-66
2023/03/03 06:51:37;;;;;;;11.23;10.73;;;7.70;91.20;;;;;;5088807;28;20055;-66
2023/03/03 06:54:11;;;;;;;11.35;10.85;;;7.70;91.20;;;;;;5088876;28;20023;-70
2023/03/03 06:56:37;;;;;;;12.00;11.50;;;7.80;91.20;;;;;;5088301;28;20023;-71
2023/03/03 06:59:14;;;;;;;12.15;11.65;;;7.80;91.10;;;;;;5088265;28;20131;-71
2023/03/03 07:01:40;;;;;;;11.18;10.68;;;7.80;91.10;;;;;;5088218;28;20107;-72
2023/03/03 07:04:18;;;;;;;11.75;11.25;;;7.80;91.10;;;;;;5088273;28;20028;-70
2023/03/03 07:06:44;;;;;;;11.77;11.27;;;7.70;91.20;;;;;;5086825;28;20039;-72
2023/03/03 07:09:36;;;;;;;;;;;7.70;91.20;;;;;;5087181;28;20019;-70
2023/03/03 07:12:12;;;;;;;12.45;11.85;;;7.80;91.20;;;;;;5081757;28;19911;-70
2023/03/03 07:14:54;;;;;;;12.60;12.00;;;7.80;91.10;;;;;;5088164;28;20028;-70
2023/03/03 07:17:22;;;;;;;12.85;12.25;;;7.70;91.10;;;;;;5087993;28;20544;-70
2023/03/03 07:19:48;;;;;;;14.75;14.15;;;7.80;91.10;;;;;;5088080;28;20032;-70
2023/03/03 07:22:20;;;;;;;14.50;13.90;;;7.80;91.10;;;;;;5086678;28;20384;-70
2023/03/03 07:24:51;;;;;;;14.85;14.25;;;7.80;91.10;;;;;;5087821;28;20031;-70
2023/03/03 07:27:26;;;;;;;15.82;15.13;;;7.80;91.10;;;;;;5087963;28;20028;-70
2023/03/03 07:29:53;;;;;;;16.48;15.77;;;7.80;91.10;;;;;;5086359;28;20024;-70
2023/03/03 07:32:34;;;;;;;16.40;15.70;;;7.80;91.10;;;;;;5087837;28;20036;-70
2023/03/03 07:35:01;;;;;;;17.83;17.13;;;7.80;91.10;;;;;;5087812;28;20027;-70
2023/03/03 07:37:34;;;;;;;16.90;16.20;;;7.80;91.20;;;;;;5087481;28;20024;-71
2023/03/03 07:40:01;;;;;;;20.35;19.55;;;7.80;91.10;;;;;;5088034;28;20042;-70
2023/03/03 07:42:40;;;;;;;19.35;18.55;;;7.80;91.10;;;;;;5087575;28;20017;-71
2023/03/03 07:45:20;;;;;;;19.40;18.60;;;7.80;91.10;;;;;;5087379;28;20035;-71
2023/03/03 07:47:47;;;;;;;18.08;17.38;;;7.90;91.10;;;;;;5087645;28;20031;-71
2023/03/03 07:50:15;;;;;;;;;;;7.90;91.10;;;;;;5070051;28;20039;-71
2023/03/03 07:52:49;;;;;;;20.30;19.50;;;7.90;91.20;;;;;;5087427;28;19910;-70
2023/03/03 07:55:29;;;;;;;20.85;20.05;;;7.90;91.10;;;;;;5085766;28;20415;-71
2023/03/03 07:57:58;;;;;;;22.52;21.63;;;7.90;91.10;;;;;;5087287;28;20024;-71
2023/03/03 08:00:26;;;;;;;23.65;22.75;;;8.00;91.20;;;;;;5084715;28;20050;-70
2023/03/03 08:03:27;;;;;;;24.17;23.25;;;8.00;91.10;;;;;;5086866;28;20021;-71
2023/03/03 08:05:53;;;;;;;24.65;23.65;;;8.00;91.10;;;;;;5064020;28;20027;-70
2023/03/03 08:08:33;;;;;;;24.95;23.95;;;8.10;91.10;;;;;;5086217;28;20413;-70
2023/03/03 08:11:00;;;;;;;25.85;24.85;;;8.10;91.20;;;;;;5087402;28;20101;-71
2023/03/03 08:13:32;;;;;;;27.58;26.48;;;8.10;91.20;;;;;;5087055;28;20074;-71
2023/03/03 08:16:11;;;;;;;24.80;23.80;;;8.10;91.20;;;;;;5086848;28;20110;-71
2023/03/03 08:18:46;;;;;;;25.70;24.70;;;8.20;91.20;;;;;;5086095;28;20024;-70
2023/03/03 08:21:17;;;;;;;24.40;23.45;;;8.20;91.20;;;;;;5087095;28;20475;-70
2023/03/03 08:23:44;;;;;;;24.73;23.73;;;8.20;91.20;;;;;;5086891;28;20032;-70
2023/03/03 08:26:13;;;;;;;23.65;22.75;;;8.20;91.20;;;;;;5086936;28;20396;-71
2023/03/03 08:28:39;;;;;;;24.50;23.55;;;8.20;91.20;;;;;;5085642;28;20073;-70
2023/03/03 08:31:05;;;;;;;27.50;26.40;;;8.20;91.20;;;;;;5087140;28;20020;-71
2023/03/03 08:33:31;;;;;;;25.02;24.02;;;8.20;91.30;;;;;;5068790;28;20033;-72
2023/03/03 08:35:57;;;;;;;24.67;23.67;;;8.30;91.30;;;;;;5086690;28;20617;-72
2023/03/03 08:38:22;;;;;;;24.15;23.25;;;8.30;91.30;;;;;;5068589;28;20028;-71
2023/03/03 08:40:49;;;;;;;25.50;24.50;;;8.20;91.30;;;;;;5086399;28;20020;-73
2023/03/03 08:43:20;;;;;;;;;;;8.20;91.30;;;;;;5087214;28;20040;-71
2023/03/03 08:45:53;;;;;;;22.55;21.65;;;8.20;91.40;;;;;;5086403;28;19915;-71
2023/03/03 08:48:20;;;;;;;23.65;22.75;;;8.20;91.40;;;;;;5086604;28;20484;-70
2023/03/03 08:50:46;;;;;;;23.42;22.52;;;8.20;91.30;;;;;;5086462;28;20107;-71
2023/03/03 08:53:13;;;;;;;24.67;23.70;;;8.30;91.40;;;;;;5086560;28;20078;-71
2023/03/03 08:55:40;;;;;;;26.42;25.42;;;8.30;91.40;;;;;;5086168;28;20122;-71
2023/03/03 08:58:05;;;;;;;25.92;24.92;;;8.30;91.30;;;;;;5086516;28;20127;-71
2023/03/03 09:00:31;;;;;;;25.80;24.80;;;8.40;91.40;;;;;;5086299;28;20495;-72
2023/03/03 09:02:57;;;;;;;25.83;24.83;;;8.40;91.30;;;;;;5086222;28;20031;-71
2023/03/03 09:05:24;;;;;;;26.65;25.65;;;8.40;91.30;;;;;;5086692;28;20032;-72
2023/03/03 09:07:50;;;;;;;28.33;27.23;;;8.50;91.30;;;;;;5084950;28;20050;-71
2023/03/03 09:10:26;;;;;;;;;;;8.50;91.30;;;;;;5086926;28;20036;-71
2023/03/03 09:12:52;;;;;;;23.67;22.77;;;8.50;91.20;;;;;;5088425;28;19915;-71
2023/03/03 09:15:36;;;;;;;22.73;21.83;;;8.50;91.20;;;;;;5089731;28;20040;-71
2023/03/03 09:18:07;;;;;;;23.13;22.23;;;8.50;91.20;;;;;;5090026;28;20020;-72
2023/03/03 09:20:38;;;;;;;20.40;19.60;;;8.40;91.20;;;;;;5089946;28;20024;-72
2023/03/03 09:23:23;;;;;;;18.95;18.15;;;8.40;91.30;;;;;;5088113;28;20020;-71
2023/03/03 09:25:49;;;;;;;18.50;17.75;;;8.40;91.30;;;;;;5088039;28;20020;-71
2023/03/03 09:28:31;;;;;;;17.80;17.10;;;8.40;91.30;;;;;;5089612;28;20449;-71
2023/03/03 09:31:00;;;;;;;17.48;16.77;;;8.40;91.40;;;;;;5089556;28;20028;-71
2023/03/03 09:33:28;;;;;;;15.75;15.05;;;8.50;91.40;;;;;;5089576;28;20051;-71
2023/03/03 09:36:19;;;;;;;14.65;14.05;;;8.50;91.40;;;;;;5089245;28;20038;-71
2023/03/03 09:38:45;;;;;;;13.70;13.10;;;8.50;91.40;;;;;;5089621;28;20024;-71
2023/03/03 09:41:27;;;;;;;12.80;12.20;;;8.60;91.40;;;;;;5089411;28;20016;-71
2023/03/03 09:44:24;;;;;;;13.10;12.50;;;8.60;91.40;;;;;;5089594;28;20032;-71
2023/03/03 09:46:58;;;;;;;11.70;11.20;;;8.60;91.50;;;;;;5089721;28;20012;-71
2023/03/03 09:49:39;;;;;;;10.00;9.50;;;8.60;91.40;;;;;;5087928;28;20028;-71
2023/03/03 09:52:20;;;;;;;9.68;9.18;;;8.50;91.40;;;;;;5089103;28;20018;-71
2023/03/03 09:54:46;;;;;;;9.80;9.30;;;8.50;91.50;;;;;;5088812;28;20449;-71
2023/03/03 09:57:35;;;;;;;10.80;10.30;;;8.50;91.50;;;;;;5086974;28;20024;-71
2023/03/03 10:00:19;;;;;;;9.32;8.90;;;8.60;91.60;;;;;;5074425;28;20035;-71
2023/03/03 10:02:45;;;;;;;8.98;8.57;;;8.70;91.60;;;;;;5088876;28;20554;-71
2023/03/03 10:05:33;;;;;;;9.68;9.18;;;8.80;91.50;;;;;;5088730;28;20127;-71
2023/03/03 10:08:27;;;;;;;9.90;9.40;;;8.80;91.50;;;;;;5088625;28;20071;-72
2023/03/03 10:11:19;;;;;;;8.65;8.25;;;8.90;91.50;;;;;;5089535;28;20395;-70
2023/03/03 10:13:51;;;;;;;8.25;7.85;;;9.00;91.60;;;;;;5089027;28;20471;-71
2023/03/03 10:16:26;;;;;;;9.65;9.15;;;9.10;91.60;;;;;;5088294;28;20051;-71
2023/03/03 10:19:02;;;;;;;7.97;7.57;;;9.20;91.60;;;;;;5089338;28;20537;-71
2023/03/03 10:21:59;;;;;;;8.10;7.70;;;9.40;91.60;;;;;;5086990;28;20043;-72
2023/03/03 10:24:46;;;;;;;6.75;6.35;;;9.50;91.60;;;;;;5081654;28;20035;-76
2023/03/03 10:27:50;;;;;;;5.38;5.07;;;9.60;91.60;;;;;;5090608;28;20440;-76
2023/03/03 10:30:52;;;;;;;4.90;4.60;;;9.60;91.60;;;;;;5078481;28;20070;-77
2023/03/03 10:33:31;;;;;;;4.47;4.18;;;9.60;91.70;;;;;;5072219;28;20075;-76
2023/03/03 10:36:03;;;;;;;4.10;3.80;;;9.70;91.80;;;;;;5091329;28;20210;-76
2023/03/03 10:38:54;;;;;;;3.35;3.10;;;9.80;91.70;;;;;;5090291;28;20021;-76
2023/03/03 10:41:32;;;;;;;2.80;2.60;;;9.90;91.80;;;;;;5090678;28;20016;-75
2023/03/03 10:44:01;;;;;;;2.30;2.10;;;10.00;91.70;;;;;;5089406;28;20027;-75
2023/03/03 10:46:40;;;;;;;1.90;1.80;;;10.00;91.70;;;;;;5083283;28;20778;-75
2023/03/03 10:49:33;;;;;;;1.73;1.63;;;10.10;91.60;;;;;;5069504;28;20012;-73
2023/03/03 10:51:59;;;;;;;1.70;1.60;;;10.20;91.60;;;;;;5066962;28;20055;-76
2023/03/03 10:54:33;;;;;;;1.60;1.50;;;10.30;91.60;;;;;;5089907;28;20055;-77
2023/03/03 10:57:12;;;;;;;1.60;1.50;;;10.40;91.60;;;;;;5070921;28;20033;-78
2023/03/03 10:59:44;;;;;;;1.40;1.30;;;10.50;91.60;;;;;;5068863;28;20069;-78
2023/03/03 11:02:28;;;;;;;1.40;1.30;;;10.50;91.60;;;;;;5069839;28;20483;-74
2023/03/03 11:05:12;;;;;;;1.38;1.27;;;10.60;91.60;;;;;;5068906;28;20352;-77
2023/03/03 11:08:05;;;;;;;0.98;0.98;;;10.70;91.70;;;;;;5070123;28;20028;-77
2023/03/03 11:10:33;;;;;;;0.80;0.80;;;10.70;91.60;;;;;;5066432;28;20032;-78
2023/03/03 11:13:14;;;;;;;0.90;0.90;;;10.60;91.50;;;;;;5069824;28;20024;-79
2023/03/03 11:16:13;;;;;;;1.30;1.20;;;10.40;91.60;;;;;;5067569;28;20041;-79
2023/03/03 11:19:11;;;;;;;1.10;1.10;;;10.30;91.60;;;;;;5069522;28;20020;-78
2023/03/03 11:21:41;;;;;;;1.00;1.00;;;10.20;91.50;;;;;;4980886;28;20030;-80
2023/03/03 11:24:34;;;;;;;1.08;1.08;;;10.10;91.70;;;;;;5069265;28;20108;-78
2023/03/03 11:27:39;;;;;;;1.10;1.10;;;10.10;91.70;;;;;;5069127;28;20028;-74
2023/03/03 11:30:10;;;;;;;1.00;1.00;;;10.10;91.70;;;;;;5031628;28;20041;-78
2023/03/03 11:32:59;;;;;;;0.90;0.90;;;10.10;91.60;;;;;;5068604;28;20158;-77
2023/03/03 11:35:49;;;;;;;0.80;0.80;;;10.10;91.60;;;;;;5068573;28;20024;-77
2023/03/03 11:38:43;;;;;;;0.80;0.80;;;9.90;91.60;;;;;;5085824;28;20024;-79
2023/03/03 11:41:27;;;;;;;0.80;0.80;;;9.90;91.80;;;;;;5079976;28;20016;-71
2023/03/03 11:44:20;;;;;;;0.70;0.70;;;9.90;91.80;;;;;;5078168;28;20296;-71
2023/03/03 11:47:25;;;;;;;0.70;0.70;;;9.90;91.80;;;;;;5074635;28;20031;-72
2023/03/03 11:49:59;;;;;;;0.60;0.60;;;9.80;91.80;;;;;;5016618;28;20045;-71
2023/03/03 11:52:38;;;;;;;0.73;0.73;;;9.80;91.80;;;;;;5065697;28;20020;-71
2023/03/03 11:55:13;;;;;;;0.70;0.70;;;9.70;91.80;;;;;;5075991;28;20119;-71
2023/03/03 11:57:51;;;;;;;0.70;0.70;;;9.70;91.80;;;;;;5056815;28;20027;-71
2023/03/03 12:00:39;;;;;;;0.73;0.73;;;9.80;91.80;;;;;;5057711;28;20017;-71
2023/03/03 12:03:05;;;;;;;;;;;10.00;91.90;;;;;;5056086;28;20021;-71
2023/03/03 12:06:01;;;;;;;0.50;0.50;;;10.20;91.80;;;;;;5058741;28;20315;-71
2023/03/03 12:08:26;;;;;;;0.60;0.60;;;10.30;91.80;;;;;;5058485;28;20126;-72
2023/03/03 12:11:47;;;;;;;0.50;0.50;;;10.40;91.80;;;;;;5060523;28;20489;-73
2023/03/03 12:14:31;;;;;;;0.50;0.50;;;10.40;91.70;;;;;;4988368;28;20039;-71
2023/03/03 12:17:24;;;;;;;0.50;0.50;;;10.50;91.80;;;;;;5057898;28;20040;-74
2023/03/03 12:20:19;;;;;;;0.50;0.50;;;10.70;91.90;;;;;;5058235;28;20052;-71
2023/03/03 12:23:03;;;;;;;0.40;0.40;;;10.80;91.70;;;;;;5053114;28;20123;-70
2023/03/03 12:26:11;;;;;;;0.20;0.20;;;10.80;91.60;;;;;;5054907;28;20360;-72
2023/03/03 12:28:45;;;;;;;0.20;0.20;;;10.60;91.50;;;;;;5035839;28;20041;-71
2023/03/03 12:31:34;;;;;;;0.35;0.35;;;10.30;91.40;;;;;;5055725;28;20024;-71
2023/03/03 12:34:11;;;;;;;0.30;0.30;;;10.10;91.60;;;;;;5057501;28;20167;-71
2023/03/03 12:36:40;;;;;;;0.40;0.40;;;10.00;91.60;;;;;;5057640;28;20482;-71
2023/03/03 12:39:14;;;;;;;0.88;0.88;;;9.90;91.60;;;;;;5058654;28;20016;-70
2023/03/03 12:42:11;;;;;;;0.77;0.77;;;9.80;91.60;;;;;;5056021;28;20013;-72
2023/03/03 12:44:40;;;;;;;0.90;0.90;;;9.70;91.50;;;;;;5046015;28;20037;-75
2023/03/03 12:47:14;;;;;;;1.55;1.45;;;9.50;91.50;;;;;;5063942;28;20025;-76
2023/03/03 12:49:52;;;;;;;1.80;1.70;;;9.20;91.50;;;;;;5064223;28;20024;-71
2023/03/03 12:52:45;;;;;;;1.70;1.60;;;9.00;91.60;;;;;;5060647;28;20028;-74
2023/03/03 12:55:29;;;;;;;1.90;1.80;;;8.80;91.70;;;;;;5060145;28;20079;-72
2023/03/03 12:58:54;;;;;;;1.90;1.80;;;8.70;91.80;;;;;;5062983;28;20088;-73
2023/03/03 13:01:38;;;;;;;1.90;1.80;;;8.70;91.90;;;;;;5004182;28;20094;-73
2023/03/03 13:04:32;;;;;;;1.50;1.40;;;8.80;91.90;;;;;;5061832;28;20021;-71
2023/03/03 13:07:23;;;;;;;1.50;1.40;;;8.90;91.90;;;;;;5060512;28;20017;-73
2023/03/03 13:10:14;;;;;;;1.10;1.10;;;9.00;91.90;;;;;;5053155;28;20033;-71
2023/03/03 13:12:49;;;;;;;0.90;0.90;;;9.10;91.70;;;;;;5059714;28;20484;-69
2023/03/03 13:15:26;;;;;;;0.90;0.90;;;9.10;91.60;;;;;;5059373;28;20060;-72
2023/03/03 13:18:17;;;;;;;0.88;0.88;;;9.10;91.60;;;;;;5058496;28;20032;-71
2023/03/03 13:20:49;;;;;;;1.10;1.10;;;9.20;91.70;;;;;;5060663;28;20029;-70
2023/03/03 13:23:37;;;;;;;0.88;0.88;;;9.40;91.70;;;;;;5059488;28;20373;-70
2023/03/03 13:26:27;;;;;;;0.80;0.80;;;9.50;91.70;;;;;;5062644;28;20024;-71